Flight Track Log - Related Links

Times and Time Zones

All times are in EDT time to prevent confusion due to time zone crossing. See the OPT332 flight status page for this flight to view local times or setup timezone preferences in your user account.

Time Position Orientation Groundspeed Altitude Reporting Facility
EDT Latitude Longitude Course Direction KTS MPH feet Rate Location/Type
Fri 12:18:49 PM 38.0472 -92.4900 113° Southeast 229 264 6,100  Level Kansas City Center
Fri 12:19:53 PM 38.0333 -92.3931 100° East 255 293 9,100 3,072 Climbing Kansas City Center
Fri 12:20:54 PM 38.0156 -92.2833 102° East 294 338 12,500 3,120 Climbing Kansas City Center
Fri 12:21:58 PM 37.9956 -92.1550 101° East 320 368 15,600 2,806 Climbing Kansas City Center
Fri 12:22:58 PM 37.9742 -92.0214 101° East 354 407 18,300 2,488 Climbing Kansas City Center
Fri 12:24:01 PM 37.9539 -91.8969 102° East 358 412 20,700 1,952 Climbing Kansas City Center
Fri 12:25:04 PM 37.9336 -91.7683 101° East 367 422 22,400 1,512 Climbing Kansas City Center
Fri 12:26:04 PM 37.9122 -91.6356 102° East 379 436 23,800 1,279 Climbing Kansas City Center
Fri 12:27:06 PM 37.8897 -91.4992 102° East 389 448 25,000 1,286 Climbing Kansas City Center
Fri 12:28:10 PM 37.8667 -91.3594 102° East 400 460 26,500 960 Climbing Kansas City Center
Fri 12:29:11 PM 37.8428 -91.2144 102° East 413 475 27,000 246 Climbing Kansas City Center
Fri 12:30:12 PM 37.8147 -91.0500 102° East 440 506 27,000 774 Level Kansas City Center
Fri 12:31:15 PM 37.7883 -90.8944 102° East 452 520 28,600 1,790 Climbing Kansas City Center
Fri 12:32:16 PM 37.7569 -90.7183 103° East 435 501 30,700 1,728 Climbing Kansas City Center
Fri 12:33:20 PM 37.7314 -90.5711 102° East 432 497 32,200 1,403 Climbing Kansas City Center
Fri 12:34:20 PM 37.7050 -90.4217 103° East 437 503 33,600 1,220 Climbing Kansas City Center
Fri 12:35:23 PM 37.6789 -90.2692 102° East 443 510 34,700 672 Climbing Kansas City Center
Fri 12:36:25 PM 37.6261 -90.1239 115° Southeast 460 529 35,000 857 Climbing Kansas City Center
Fri 12:37:29 PM 37.5611 -89.9642 117° Southeast 464 534 36,500 1,452 Climbing Kansas City Center
Fri 12:38:29 PM 37.5033 -89.8192 117° Southeast 464 534 38,000 1,475 Climbing Kansas City Center
Fri 12:39:31 PM 37.4444 -89.6769 118° Southeast 460 529 39,500 1,392 Climbing Kansas City Center
Fri 12:40:34 PM 37.3875 -89.5378 117° Southeast 451 519 40,900 726 Climbing Kansas City Center
Fri 12:41:35 PM 37.3167 -89.3731 118° Southeast 446 513 41,000 53 Climbing Kansas City Center
Fri 12:42:28 PM 37.2708 -89.2622 117° Southeast 453 521 41,000  Level Memphis Center
Fri 12:43:28 PM 37.2089 -89.1147 118° Southeast 464 534 41,000  Level Memphis Center
Fri 12:44:28 PM 37.1469 -88.9697 118° Southeast 469 540 41,000  Level Memphis Center
Fri 12:45:28 PM 37.0847 -88.8200 117° Southeast 469 540 41,000  Level Memphis Center
Fri 12:46:28 PM 37.0139 -88.6578 119° Southeast 474 545 41,000  Level Memphis Center
Fri 12:47:28 PM 36.9494 -88.5086 118° Southeast 474 545 41,000  Level Memphis Center
Fri 12:48:28 PM 36.8844 -88.3569 118° Southeast 474 545 41,000  Level Memphis Center
Fri 12:49:28 PM 36.8092 -88.2217 125° Southeast 479 551 41,000  Level Memphis Center
Fri 12:50:28 PM 36.7406 -88.1017 125° Southeast 479 551 41,000  Level Memphis Center
Fri 12:51:28 PM 36.6628 -87.9669 126° Southeast 479 551 41,000  Level Memphis Center
Fri 12:52:28 PM 36.5808 -87.8219 125° Southeast 473 544 41,000  Level Memphis Center
Fri 12:53:28 PM 36.5050 -87.6875 125° Southeast 473 544 41,000 -500 Level Memphis Center
Fri 12:54:28 PM 36.4269 -87.5533 126° Southeast 473 544 40,000 -1,446 Descending Memphis Center
Fri 01:00:23 PM 35.9652 -86.7547 126° Southeast 461 531 31,000 -1,519 Descending FlightAware ADS-B
Fri 01:00:55 PM 35.9254 -86.6870 126° Southeast 456 525 30,200 -1,541 Descending FlightAware ADS-B
Fri 01:01:37 PM 35.8738 -86.5992 126° Southeast 450 518 29,100 -1,486 Descending FlightAware ADS-B
Fri 01:02:40 PM 35.7965 -86.4682 126° Southeast 450 518 27,600 -1,484 Descending FlightAware ADS-B
Fri 01:03:10 PM 35.7592 -86.4053 126° Southeast 454 522 26,800 -1,518 Descending FlightAware ADS-B
Fri 01:04:03 PM 35.6943 -86.2957 126° Southeast 450 518 25,500 -1,446 Descending FlightAware ADS-B
Fri 01:04:33 PM 35.6575 -86.2339 126° Southeast 440 506 24,800 -1,475 Descending FlightAware ADS-B
Fri 01:05:04 PM 35.6213 -86.1731 126° Southeast 438 504 24,000 -1,754 Descending FlightAware ADS-B
Fri 01:05:38 PM 35.5803 -86.1044 126° Southeast 435 501 22,900 -1,969 Descending FlightAware ADS-B
Fri 01:06:08 PM 35.5446 -86.0446 126° Southeast 430 495 21,900 -2,066 Descending FlightAware ADS-B
Fri 01:06:39 PM 35.5091 -85.9854 126° Southeast 421 484 20,800 -2,557 Descending FlightAware ADS-B
Fri 01:07:09 PM 35.4744 -85.9276 126° Southeast 406 467 19,300 -3,148 Descending FlightAware ADS-B
Fri 01:07:40 PM 35.4413 -85.8725 126° Southeast 387 445 17,600 -3,675 Descending FlightAware ADS-B
Fri 01:08:29 PM 35.3902 -85.7877 126° Southeast 381 438 14,400 -4,025 Descending FlightAware ADS-B
Fri 01:08:59 PM 35.3601 -85.7377 126° Southeast 357 411 12,300 -2,643 Descending FlightAware ADS-B
Fri 01:09:53 PM 35.3119 -85.6578 126° Southeast 353 406 10,700 -2,308 Descending FlightAware ADS-B
Fri 01:10:30 PM 35.2811 -85.6070 127° Southeast 296 341 8,800 -3,081 Descending FlightAware ADS-B
Fri 01:16:00 PM 35.0333 -85.2000 112° Southeast  Level FlightAware Approximate
Fri 01:17:00 PM 35.0352 -85.2036 112° Southeast  Level Estimated
Fri 01:18:00 PM 35.0333 -85.2000 112° Southeast  Level FlightAware Approximate
Fri 01:19:00 PM 35.0352 -85.2036 112° Southeast  Level Estimated
Fri 01:20:00 PM 35.0333 -85.2000 112° Southeast  Level FlightAware Approximate
Fri 01:21:00 PM 35.0352 -85.2036 112° Southeast  Level Estimated
Fri 01:22:00 PM 35.0333 -85.2000 112° Southeast  Level FlightAware Approximate
Fri 01:23:00 PM 35.0352 -85.2036 112° Southeast  Level Estimated
Fri 01:24:00 PM 35.0333 -85.2000 112° Southeast  Level FlightAware Approximate
Fri 01:25:00 PM 35.0352 -85.2036 112° Southeast  Level Estimated

Login

Don't have an account? Register now (free) for customized features, flight alerts, and more!